KPVW/PVW METAR and TAF weather

Enter ICAO airport designator
Station Type Date Time Source
KPVW METAR 2019/12/09 00:35 UTC NOAA

KPVW 090035Z AUTO 27014KT 10SM CLR 16/04 A2979 RMK AO2 LTG DSNT W T01570037


Station Type Date Time Source
KPVW Decoded METAR 2019/12/09 00:35 UTC NOAA

Plainview, Hale County Airport, TX, United States (KPVW) 34-10-05N 101-43-02W
Dec 08, 2019 - 07:35 PM EST / 2019.12.09 0035 UTC
Wind: from the W (270 degrees) at 16 MPH (14 KT):0
Visibility: 10 mile(s):0
Sky conditions: clear
Weather: Lightning observed
Temperature: 60.3 F (15.7 C)
Dew Point: 38.7 F (3.7 C)
Relative Humidity: 44%
Pressure (altimeter): 29.79 in. Hg (1008 hPa)
ob: KPVW 090035Z AUTO 27014KT 10SM CLR 16/04 A2979 RMK AO2 LTG DSNT W T01570037
cycle: 0

Station Type Date Time Source
KPVW TAF 2019/12/08 18:22 UTC NOAA

TAF KPVW 081720Z 0818/0918 26022G29KT P6SM BKN250
FM090000 26016KT P6SM BKN250
FM090900 26014KT P6SM BKN250 WS020/28045KT
FM091200 27014KT P6SM BKN250
FM091500 31012KT P6SM BKN250

Example: see airport list